createdAt,value
2022-10-09T00:01:31.311Z,23.80
2022-10-09T00:04:01.395Z,14.43
2022-10-09T00:06:32.977Z,12.13
2022-10-09T00:09:02.836Z,15.48
2022-10-09T00:11:34.577Z,13.00
2022-10-09T00:14:03.590Z,18.77
2022-10-09T00:16:32.012Z,17.92
2022-10-09T00:19:00.941Z,14.30
2022-10-09T00:21:31.742Z,17.17
2022-10-09T00:24:02.343Z,13.95
2022-10-09T00:26:32.700Z,12.80
2022-10-09T00:29:01.012Z,15.55
2022-10-09T00:31:29.659Z,18.50
2022-10-09T00:33:58.228Z,17.85
2022-10-09T00:36:27.533Z,14.32
2022-10-09T00:38:57.064Z,14.70
2022-10-09T00:41:29.010Z,21.48
2022-10-09T00:44:01.059Z,15.27
2022-10-09T00:46:36.065Z,19.60
2022-10-09T00:49:14.425Z,18.20
2022-10-09T00:51:45.144Z,15.57
2022-10-09T00:54:19.123Z,21.60
2022-10-09T00:56:47.614Z,18.42
2022-10-09T00:59:18.799Z,14.25
2022-10-09T01:01:47.596Z,17.52
2022-10-09T01:04:16.395Z,16.45
2022-10-09T01:07:05.348Z,17.70
2022-10-09T01:09:42.100Z,16.17
2022-10-09T01:12:20.949Z,16.95
2022-10-09T01:15:00.147Z,18.45
2022-10-09T01:17:38.434Z,21.27
2022-10-09T01:20:35.592Z,18.42
2022-10-09T01:23:23.852Z,18.67
2022-10-09T01:26:09.868Z,22.25
2022-10-09T01:28:42.767Z,19.13
2022-10-09T01:31:12.924Z,20.83
2022-10-09T01:33:42.046Z,19.48
2022-10-09T01:36:11.496Z,22.05
2022-10-09T01:38:41.680Z,29.48
2022-10-09T01:41:10.884Z,17.88
2022-10-09T01:43:41.431Z,23.77
2022-10-09T01:46:25.777Z,20.50
2022-10-09T01:49:06.765Z,17.70
2022-10-09T01:51:44.918Z,24.13
2022-10-09T01:54:15.623Z,25.58
2022-10-09T01:56:45.189Z,20.45
2022-10-09T01:59:18.687Z,24.25
2022-10-09T02:01:49.817Z,23.65
2022-10-09T02:04:19.739Z,26.92
2022-10-09T02:06:48.780Z,20.67
2022-10-09T02:09:18.937Z,18.55
2022-10-09T02:11:54.095Z,23.58
2022-10-09T02:14:25.301Z,25.15
2022-10-09T02:17:02.360Z,19.65
2022-10-09T02:19:38.234Z,19.17
2022-10-09T02:22:13.364Z,20.42
2022-10-09T02:24:42.659Z,16.05
2022-10-09T02:27:12.070Z,22.75
2022-10-09T02:29:43.543Z,20.25
2022-10-09T02:32:12.590Z,15.15
2022-10-09T02:34:40.886Z,16.73
2022-10-09T02:37:09.568Z,16.58
2022-10-09T02:39:37.927Z,18.50
2022-10-09T02:42:06.577Z,23.05
2022-10-09T02:44:34.819Z,19.45
2022-10-09T02:47:04.573Z,15.98
2022-10-09T02:49:32.757Z,14.90
2022-10-09T02:52:00.987Z,16.15
2022-10-09T02:54:29.166Z,17.90
2022-10-09T02:56:57.379Z,19.63
2022-10-09T02:59:25.574Z,16.73
2022-10-09T03:01:54.296Z,18.25
2022-10-09T03:04:23.904Z,28.48
2022-10-09T03:06:52.404Z,16.45
2022-10-09T03:09:20.608Z,16.20
2022-10-09T03:11:48.826Z,18.70
2022-10-09T03:14:17.348Z,16.90
2022-10-09T03:16:45.533Z,18.17
2022-10-09T03:19:14.073Z,18.73
2022-10-09T03:21:43.619Z,20.58
2022-10-09T03:24:12.036Z,21.10
2022-10-09T03:26:40.204Z,27.92
2022-10-09T03:29:08.390Z,20.83
2022-10-09T03:31:53.369Z,22.15
2022-10-09T03:34:21.964Z,19.05
2022-10-09T03:36:51.505Z,21.27
2022-10-09T03:39:19.700Z,22.67
2022-10-09T03:41:48.070Z,20.08
2022-10-09T03:44:16.226Z,20.63
2022-10-09T03:46:44.428Z,21.02
2022-10-09T03:49:12.610Z,22.15
2022-10-09T03:51:40.913Z,22.63
2022-10-09T03:54:10.699Z,19.30
2022-10-09T03:56:38.848Z,18.90
2022-10-09T03:59:07.536Z,20.85
2022-10-09T04:01:35.886Z,19.80
2022-10-09T04:04:04.246Z,25.55
2022-10-09T04:06:32.550Z,24.55
2022-10-09T04:09:01.209Z,22.52
2022-10-09T04:11:30.814Z,15.27
2022-10-09T04:13:58.931Z,20.05
2022-10-09T04:16:27.465Z,22.83
2022-10-09T04:18:55.751Z,22.20
2022-10-09T04:21:23.954Z,23.33
2022-10-09T04:23:52.941Z,18.83
2022-10-09T04:26:21.844Z,29.10
2022-10-09T04:28:51.481Z,23.67
2022-10-09T04:31:19.809Z,25.80
2022-10-09T04:33:48.010Z,25.58
2022-10-09T04:36:16.560Z,19.73
2022-10-09T04:38:45.140Z,20.17
2022-10-09T04:41:14.138Z,22.63
2022-10-09T04:43:42.573Z,24.65
2022-10-09T04:46:15.374Z,24.13
2022-10-09T04:48:46.540Z,19.60
2022-10-09T04:51:16.018Z,22.75
2022-10-09T04:53:45.405Z,27.20
2022-10-09T04:56:17.231Z,23.92
2022-10-09T04:58:47.192Z,25.98
2022-10-09T05:01:21.278Z,24.60
2022-10-09T05:03:50.019Z,30.33
2022-10-09T05:06:19.819Z,23.25
2022-10-09T05:08:48.569Z,14.63
2022-10-09T05:11:20.390Z,16.48
2022-10-09T05:13:52.036Z,26.73
2022-10-09T05:16:24.779Z,23.67
2022-10-09T05:18:57.278Z,27.77
2022-10-09T05:21:26.568Z,29.60
2022-10-09T05:23:55.985Z,23.15
2022-10-09T05:26:26.975Z,24.58
2022-10-09T05:28:55.764Z,21.80
2022-10-09T05:31:27.391Z,17.08
2022-10-09T05:33:56.983Z,24.05
2022-10-09T05:36:25.376Z,21.10
2022-10-09T05:38:53.583Z,26.73
2022-10-09T05:41:21.786Z,23.45
2022-10-09T05:43:51.311Z,21.35
2022-10-09T05:46:23.387Z,21.90
2022-10-09T05:48:55.975Z,17.17
2022-10-09T05:51:26.983Z,22.10
2022-10-09T05:53:55.685Z,18.77
2022-10-09T05:56:26.713Z,15.70
2022-10-09T05:58:56.894Z,16.10
2022-10-09T06:01:27.964Z,19.58
2022-10-09T06:04:00.361Z,19.35
2022-10-09T06:06:31.377Z,20.33
2022-10-09T06:09:00.474Z,20.42
2022-10-09T06:11:31.901Z,22.73
2022-10-09T06:14:02.185Z,18.00
2022-10-09T06:16:33.773Z,19.45
2022-10-09T06:19:05.025Z,19.63
2022-10-09T06:21:33.598Z,22.27
2022-10-09T06:24:04.988Z,23.90
2022-10-09T06:26:33.878Z,19.23
2022-10-09T06:29:03.620Z,20.75
2022-10-09T06:31:33.899Z,25.55
2022-10-09T06:34:04.823Z,21.75
2022-10-09T06:36:36.052Z,28.40
2022-10-09T06:39:07.878Z,26.37
2022-10-09T06:41:36.708Z,22.58
2022-10-09T06:44:19.591Z,24.00
2022-10-09T06:46:50.796Z,27.58
2022-10-09T06:49:20.490Z,25.02
2022-10-09T06:51:48.764Z,24.20
2022-10-09T06:54:17.450Z,24.55
2022-10-09T06:56:46.291Z,20.63
2022-10-09T06:59:14.509Z,26.27
2022-10-09T07:01:42.967Z,21.77
2022-10-09T07:04:14.321Z,21.85
2022-10-09T07:06:46.677Z,19.83
2022-10-09T07:09:16.661Z,20.00
2022-10-09T07:11:49.006Z,25.52
2022-10-09T07:14:17.970Z,21.00
2022-10-09T07:16:48.925Z,18.63
2022-10-09T07:19:19.268Z,24.90
2022-10-09T07:21:51.052Z,17.75
2022-10-09T07:24:20.826Z,18.30
2022-10-09T07:26:49.926Z,15.18
2022-10-09T07:29:20.397Z,17.98
2022-10-09T07:31:49.837Z,17.90
2022-10-09T07:34:18.496Z,13.00
2022-10-09T07:36:48.087Z,17.70
2022-10-09T07:39:18.958Z,15.18
2022-10-09T07:41:47.722Z,14.10
2022-10-09T07:44:16.148Z,18.83
2022-10-09T07:46:44.466Z,12.95
2022-10-09T07:49:13.043Z,8.52
2022-10-09T07:51:41.614Z,13.43
2022-10-09T07:54:11.267Z,11.73
2022-10-09T07:56:40.403Z,13.30
2022-10-09T07:59:13.692Z,13.30
2022-10-09T08:01:42.733Z,12.00
2022-10-09T08:04:11.463Z,12.50
2022-10-09T08:06:39.911Z,9.48
2022-10-09T08:09:10.836Z,11.48
2022-10-09T08:11:41.106Z,11.20
2022-10-09T08:14:16.767Z,12.45
2022-10-09T08:16:47.531Z,10.02
2022-10-09T08:19:15.728Z,10.88
2022-10-09T08:21:43.948Z,10.13
2022-10-09T08:24:13.495Z,11.45
2022-10-09T08:26:42.459Z,14.98
2022-10-09T08:29:13.790Z,12.20
2022-10-09T08:31:42.671Z,10.68
2022-10-09T08:34:12.047Z,8.55
2022-10-09T08:36:40.764Z,12.73
2022-10-09T08:39:09.045Z,9.82
2022-10-09T08:41:46.342Z,12.80
2022-10-09T08:44:23.276Z,11.18
2022-10-09T08:47:02.026Z,7.65
2022-10-09T08:49:41.817Z,4.05
2022-10-09T08:52:27.954Z,7.57
2022-10-09T08:55:00.520Z,5.47
2022-10-09T08:57:35.536Z,7.72
2022-10-09T09:00:03.818Z,8.65
2022-10-09T09:02:53.759Z,8.82
2022-10-09T09:05:36.742Z,8.40
2022-10-09T09:08:20.893Z,3.45
2022-10-09T09:11:00.847Z,4.70
2022-10-09T09:13:53.094Z,6.28
2022-10-09T09:19:12.925Z,5.40
2022-10-09T09:21:48.904Z,5.68
2022-10-09T09:24:21.284Z,4.70
2022-10-09T09:26:54.628Z,8.23
2022-10-09T09:29:25.554Z,6.38
2022-10-09T09:31:58.634Z,4.77
2022-10-09T09:34:35.641Z,6.55
2022-10-09T09:37:04.850Z,8.02
2022-10-09T09:40:24.183Z,3.40
2022-10-09T09:42:23.939Z,6.78
2022-10-09T09:45:00.811Z,8.93
2022-10-09T09:47:37.120Z,4.55
2022-10-09T09:50:23.376Z,5.60
2022-10-09T09:52:58.398Z,8.68
2022-10-09T09:55:30.809Z,6.72
2022-10-09T09:58:06.523Z,7.43
2022-10-09T10:00:37.187Z,6.30
2022-10-09T10:03:17.924Z,3.17
2022-10-09T10:05:47.072Z,3.17
2022-10-09T10:08:26.336Z,10.55
2022-10-09T10:10:57.508Z,5.78
2022-10-09T10:13:35.122Z,6.53
2022-10-09T10:16:07.139Z,4.53
2022-10-09T10:18:40.919Z,3.53
2022-10-09T10:21:15.987Z,4.45
2022-10-09T10:23:51.027Z,5.53
2022-10-09T10:26:29.765Z,4.43
2022-10-09T10:29:04.309Z,6.60
2022-10-09T10:31:48.697Z,4.60
2022-10-09T10:34:24.475Z,4.00
2022-10-09T10:37:03.345Z,7.47
2022-10-09T10:39:40.989Z,3.22
2022-10-09T10:42:18.148Z,5.68
2022-10-09T10:44:55.598Z,2.20
2022-10-09T10:47:31.069Z,4.32
2022-10-09T10:49:59.424Z,4.15
2022-10-09T10:52:45.849Z,4.13
2022-10-09T10:55:30.725Z,2.13
2022-10-09T10:58:18.441Z,7.30
2022-10-09T11:01:02.487Z,5.03
2022-10-09T11:03:47.703Z,5.40
2022-10-09T11:06:24.394Z,3.75
2022-10-09T11:09:10.502Z,3.30
2022-10-09T11:11:47.484Z,3.15
2022-10-09T11:14:32.787Z,2.40
2022-10-09T11:17:11.960Z,4.57
2022-10-09T11:20:00.355Z,4.68
2022-10-09T11:22:53.577Z,1.95
2022-10-09T11:25:30.758Z,7.95
2022-10-09T11:28:04.103Z,4.40
2022-10-09T11:30:39.225Z,4.43
2022-10-09T11:33:28.400Z,2.45
2022-10-09T11:36:03.904Z,3.85
2022-10-09T11:38:38.329Z,7.40
2022-10-09T11:41:08.205Z,5.00
2022-10-09T11:43:56.387Z,2.47
2022-10-09T11:46:36.753Z,2.55
2022-10-09T11:49:18.353Z,3.47
2022-10-09T11:51:56.982Z,4.82
2022-10-09T11:54:27.446Z,3.97
2022-10-09T11:56:59.463Z,2.83
2022-10-09T11:59:31.266Z,8.68
2022-10-09T12:02:02.978Z,5.68
2022-10-09T12:07:34.442Z,4.43
2022-10-09T12:10:07.521Z,3.20
2022-10-09T12:12:38.742Z,2.25
2022-10-09T12:15:27.092Z,1.35
2022-10-09T12:17:55.583Z,4.00
2022-10-09T12:20:26.302Z,3.97
2022-10-09T12:23:25.068Z,2.85
2022-10-09T12:25:50.505Z,3.03
2022-10-09T12:28:28.066Z,4.13
2022-10-09T12:30:57.941Z,3.83
2022-10-09T12:33:31.932Z,4.43
2022-10-09T12:36:06.399Z,3.78
2022-10-09T12:38:36.238Z,4.45
2022-10-09T12:41:08.296Z,3.85
2022-10-09T12:43:36.852Z,3.78
2022-10-09T12:46:05.380Z,3.17
2022-10-09T12:48:41.393Z,2.45
2022-10-09T12:51:18.275Z,2.47
2022-10-09T12:53:53.334Z,2.95
2022-10-09T12:56:26.402Z,5.88
2022-10-09T12:58:55.479Z,4.55
2022-10-09T13:01:24.518Z,3.70
2022-10-09T13:03:58.027Z,4.50
2022-10-09T13:06:31.417Z,2.85
2022-10-09T13:09:03.999Z,2.88
2022-10-09T13:11:34.998Z,3.05
2022-10-09T13:14:04.105Z,2.58
2022-10-09T13:16:42.043Z,4.22
2022-10-09T13:19:25.877Z,3.92
2022-10-09T13:22:18.943Z,5.05
2022-10-09T13:24:51.241Z,3.75
2022-10-09T13:27:22.401Z,2.40
2022-10-09T13:29:51.039Z,2.35
2022-10-09T13:32:20.955Z,2.05
2022-10-09T13:34:49.556Z,2.85
2022-10-09T13:37:20.256Z,3.95
2022-10-09T13:39:51.762Z,3.60
2022-10-09T13:42:20.658Z,3.53
2022-10-09T13:44:48.986Z,2.53
2022-10-09T13:47:21.963Z,3.03
2022-10-09T13:49:52.894Z,5.43
2022-10-09T13:52:21.240Z,2.00
2022-10-09T13:54:50.873Z,2.85
2022-10-09T13:57:19.626Z,2.75
2022-10-09T13:59:47.975Z,2.90
2022-10-09T14:02:16.849Z,3.05
2022-10-09T14:04:45.084Z,2.17
2022-10-09T14:07:13.767Z,1.98
2022-10-09T14:09:42.123Z,3.28
2022-10-09T14:12:12.269Z,3.13
2022-10-09T14:14:40.882Z,1.75
2022-10-09T14:17:09.274Z,3.25
2022-10-09T14:19:37.652Z,2.85
2022-10-09T14:22:05.993Z,2.97
2022-10-09T14:24:34.528Z,3.40
2022-10-09T14:27:02.789Z,1.95
2022-10-09T14:29:32.393Z,3.22
2022-10-09T14:32:00.709Z,3.42
2022-10-09T14:34:28.907Z,2.85
2022-10-09T14:36:58.210Z,3.10
2022-10-09T14:39:26.739Z,4.38
2022-10-09T14:41:55.129Z,2.10
2022-10-09T14:44:23.535Z,5.70
2022-10-09T14:46:53.110Z,2.75
2022-10-09T14:49:21.578Z,4.18
2022-10-09T14:51:49.795Z,3.45
2022-10-09T14:54:18.346Z,1.77
2022-10-09T14:56:46.588Z,2.80
2022-10-09T14:59:15.156Z,4.05
2022-10-09T15:01:43.442Z,3.00
2022-10-09T15:04:14.245Z,2.90
2022-10-09T15:06:42.666Z,3.22
2022-10-09T15:09:11.311Z,1.98
2022-10-09T15:11:39.492Z,1.58
2022-10-09T15:14:07.929Z,2.03
2022-10-09T15:16:36.874Z,2.65
2022-10-09T15:19:05.825Z,4.43
2022-10-09T15:21:37.257Z,1.50
2022-10-09T15:24:06.092Z,3.25
2022-10-09T15:26:36.765Z,1.15
2022-10-09T15:29:08.098Z,3.30
2022-10-09T15:31:38.765Z,1.55
2022-10-09T15:34:09.073Z,1.63
2022-10-09T15:36:43.035Z,1.42
2022-10-09T15:39:11.687Z,5.32
2022-10-09T15:41:42.764Z,3.88
2022-10-09T15:44:17.661Z,1.73
2022-10-09T15:46:47.270Z,3.15
2022-10-09T15:49:15.853Z,1.75
2022-10-09T15:51:45.641Z,2.03
2022-10-09T15:54:15.292Z,1.45
2022-10-09T15:56:43.761Z,3.95
2022-10-09T15:59:14.147Z,1.58
2022-10-09T16:01:42.419Z,4.93
2022-10-09T16:04:10.949Z,1.63
2022-10-09T16:06:39.389Z,4.95
2022-10-09T16:09:09.198Z,4.75
2022-10-09T16:11:37.378Z,2.70
2022-10-09T16:14:05.658Z,1.42
2022-10-09T16:16:33.876Z,2.65
2022-10-09T16:19:05.088Z,2.28
2022-10-09T16:21:33.379Z,3.15
2022-10-09T16:24:02.306Z,3.75
2022-10-09T16:26:31.983Z,2.15
2022-10-09T16:29:01.635Z,1.52
2022-10-09T16:31:34.664Z,2.78
2022-10-09T16:34:04.388Z,1.52
2022-10-09T16:36:32.693Z,2.72
2022-10-09T16:39:01.010Z,2.15
2022-10-09T16:41:29.526Z,3.17
2022-10-09T16:44:00.260Z,5.28
2022-10-09T16:49:05.786Z,5.30
2022-10-09T16:51:37.003Z,4.47
2022-10-09T16:54:07.317Z,4.60
2022-10-09T16:56:39.958Z,9.25
2022-10-09T16:59:11.818Z,2.92
2022-10-09T17:01:45.144Z,3.67
2022-10-09T17:04:14.786Z,5.55
2022-10-09T17:06:43.841Z,4.22
2022-10-09T17:09:14.320Z,4.25
2022-10-09T17:11:44.036Z,6.68
2022-10-09T17:14:14.424Z,7.60
2022-10-09T17:16:44.470Z,4.22
2022-10-09T17:19:13.589Z,6.80
2022-10-09T17:21:41.905Z,6.88
2022-10-09T17:24:13.832Z,7.93
2022-10-09T17:26:42.667Z,4.82
2022-10-09T17:29:13.589Z,5.70
2022-10-09T17:31:42.305Z,7.78
2022-10-09T17:34:12.072Z,7.60
2022-10-09T17:36:42.498Z,8.35
2022-10-09T17:39:15.016Z,11.32
2022-10-09T17:41:46.824Z,7.47
2022-10-09T17:44:17.185Z,6.97
2022-10-09T17:46:45.690Z,7.13
2022-10-09T17:49:13.971Z,4.47
2022-10-09T17:51:42.538Z,7.07
2022-10-09T17:54:16.858Z,7.38
2022-10-09T17:56:45.125Z,9.48
2022-10-09T17:59:13.913Z,8.63
2022-10-09T18:01:43.860Z,7.03
2022-10-09T18:04:16.551Z,8.23
2022-10-09T18:06:45.635Z,12.07
2022-10-09T18:09:14.055Z,10.52
2022-10-09T18:11:42.610Z,11.25
2022-10-09T18:14:11.997Z,5.53
2022-10-09T18:16:41.013Z,7.63
2022-10-09T18:19:13.602Z,11.27
2022-10-09T18:21:45.200Z,8.95
2022-10-09T18:24:14.697Z,6.97
2022-10-09T18:26:43.554Z,7.10
2022-10-09T18:29:11.807Z,6.00
2022-10-09T18:31:40.166Z,5.03
2022-10-09T18:34:11.021Z,5.82
2022-10-09T18:36:39.843Z,8.10
2022-10-09T18:39:11.164Z,7.10
2022-10-09T18:41:39.472Z,7.53
2022-10-09T18:44:12.178Z,8.45
2022-10-09T18:46:44.058Z,7.65
2022-10-09T18:49:17.041Z,7.28
2022-10-09T18:51:46.636Z,6.25
2022-10-09T18:54:18.241Z,7.97
2022-10-09T18:56:47.344Z,5.93
2022-10-09T18:59:20.400Z,10.35
2022-10-09T19:01:48.797Z,8.93
2022-10-09T19:04:19.022Z,9.10
2022-10-09T19:06:47.577Z,9.27
2022-10-09T19:09:15.949Z,6.75
2022-10-09T19:11:44.494Z,7.88
2022-10-09T19:14:12.721Z,5.78
2022-10-09T19:16:40.957Z,9.40
2022-10-09T19:19:09.609Z,7.43
2022-10-09T19:21:43.756Z,7.05
2022-10-09T19:24:13.416Z,6.55
2022-10-09T19:26:42.276Z,7.10
2022-10-09T19:29:10.647Z,9.05
2022-10-09T19:31:38.952Z,7.60
2022-10-09T19:34:07.360Z,7.13
2022-10-09T19:36:36.817Z,4.55
2022-10-09T19:39:07.786Z,6.45
2022-10-09T19:41:36.173Z,6.15
2022-10-09T19:44:04.398Z,5.05
2022-10-09T19:46:32.769Z,4.65
2022-10-09T19:49:01.643Z,7.97
2022-10-09T19:51:29.931Z,5.13
2022-10-09T19:53:59.093Z,5.60
2022-10-09T19:56:31.492Z,4.78
2022-10-09T19:59:03.623Z,5.13
2022-10-09T20:04:04.319Z,3.30
2022-10-09T20:06:32.584Z,5.15
2022-10-09T20:09:00.869Z,6.63
2022-10-09T20:11:30.451Z,3.85
2022-10-09T20:13:59.850Z,4.13
2022-10-09T20:16:31.918Z,4.10
2022-10-09T20:21:30.703Z,3.78
2022-10-09T20:24:00.340Z,7.45
2022-10-09T20:26:31.425Z,3.50
2022-10-09T20:29:00.034Z,3.23
2022-10-09T20:31:29.033Z,6.95
2022-10-09T20:33:57.370Z,56.17
2022-10-09T20:36:27.948Z,25.60
2022-10-09T20:38:57.858Z,7.03
2022-10-09T20:41:27.665Z,619.17
2022-10-09T20:43:59.459Z,853.53
2022-10-09T20:46:30.355Z,749.60
2022-10-09T20:49:00.319Z,764.38
2022-10-09T20:51:28.546Z,820.75
2022-10-09T20:53:58.827Z,826.67
2022-10-09T20:56:29.883Z,700.90
2022-10-09T20:59:00.718Z,716.75
2022-10-09T21:01:30.131Z,548.03
2022-10-09T21:04:00.027Z,9.57
2022-10-09T21:06:30.071Z,677.08
2022-10-09T21:08:59.087Z,633.03
2022-10-09T21:11:27.419Z,615.10
2022-10-09T21:13:55.912Z,637.53
2022-10-09T21:16:26.541Z,64.20
2022-10-09T21:18:56.147Z,185.55
2022-10-09T21:21:25.197Z,264.15
2022-10-09T21:23:56.139Z,423.48
2022-10-09T21:26:25.487Z,464.38
2022-10-09T21:28:59.061Z,1.40
2022-10-09T21:31:31.899Z,2.67
2022-10-09T21:36:55.816Z,2.22
2022-10-09T21:39:28.264Z,3.45
2022-10-09T21:41:56.643Z,3.72
2022-10-09T21:44:24.863Z,3.88
2022-10-09T21:46:55.864Z,2.03
2022-10-09T21:49:27.170Z,5.35
2022-10-09T21:51:56.252Z,2.35
2022-10-09T21:54:24.721Z,3.45
2022-10-09T21:56:52.968Z,2.60
2022-10-09T21:59:21.152Z,4.63
2022-10-09T22:01:49.489Z,3.20
2022-10-09T22:04:19.005Z,4.15
2022-10-09T22:06:47.183Z,5.43
2022-10-09T22:09:15.612Z,4.95
2022-10-09T22:11:44.582Z,3.30
2022-10-09T22:14:12.957Z,5.60
2022-10-09T22:16:41.157Z,3.72
2022-10-09T22:19:09.350Z,3.53
2022-10-09T22:21:38.972Z,3.47
2022-10-09T22:24:07.474Z,3.97
2022-10-09T22:26:35.735Z,4.80
2022-10-09T22:29:03.916Z,4.60
2022-10-09T22:31:32.086Z,4.72
2022-10-09T22:34:02.997Z,2.72
2022-10-09T22:36:33.966Z,3.72
2022-10-09T22:39:06.809Z,4.47
2022-10-09T22:41:36.267Z,5.75
2022-10-09T22:44:07.802Z,2.88
2022-10-09T22:46:39.781Z,2.97
2022-10-09T22:49:11.545Z,6.00
2022-10-09T22:51:39.808Z,5.15
2022-10-09T22:54:09.467Z,2.05
2022-10-09T22:56:40.271Z,6.93
2022-10-09T22:59:10.279Z,3.40
2022-10-09T23:01:44.186Z,3.25
2022-10-09T23:04:15.576Z,6.55
2022-10-09T23:06:45.137Z,3.70
2022-10-09T23:09:16.074Z,3.80
2022-10-09T23:11:44.603Z,4.82
2022-10-09T23:14:13.426Z,4.22
2022-10-09T23:16:42.289Z,4.78
2022-10-09T23:19:12.042Z,4.88
2022-10-09T23:21:43.517Z,5.03
2022-10-09T23:24:17.408Z,6.95
2022-10-09T23:26:46.757Z,6.75
2022-10-09T23:29:18.303Z,4.57
2022-10-09T23:31:48.450Z,4.75
2022-10-09T23:34:16.642Z,3.08
2022-10-09T23:36:45.160Z,5.03
2022-10-09T23:39:15.320Z,3.88
2022-10-09T23:41:43.545Z,3.35
2022-10-09T23:44:11.704Z,3.83
2022-10-09T23:46:39.919Z,5.00
2022-10-09T23:49:08.109Z,3.63
2022-10-09T23:51:37.914Z,5.38
2022-10-09T23:54:07.131Z,6.18
2022-10-09T23:56:37.906Z,5.05
2022-10-09T23:59:07.323Z,3.53
